createdAt,value
2023-08-15T05:21:20.151Z,8.18
2023-08-15T05:24:24.333Z,8.68
2023-08-15T05:27:26.864Z,8.15
2023-08-15T05:30:29.439Z,7.82
2023-08-15T05:33:31.964Z,7.63
2023-08-15T05:36:36.029Z,8.00
2023-08-15T05:39:38.609Z,7.20
2023-08-15T05:42:41.383Z,7.25
2023-08-15T05:45:45.075Z,7.43
2023-08-15T05:48:47.662Z,7.30
2023-08-15T05:51:51.541Z,7.03
2023-08-15T05:54:54.367Z,7.28
2023-08-15T05:57:57.744Z,7.28
2023-08-15T06:01:00.503Z,7.57
2023-08-15T06:04:03.637Z,7.35
2023-08-15T06:07:07.684Z,7.45
2023-08-15T06:10:10.582Z,7.15
2023-08-15T06:13:13.131Z,6.30
2023-08-15T06:16:15.669Z,5.82
2023-08-15T06:19:19.317Z,5.32
2023-08-15T06:22:23.181Z,4.75
2023-08-15T06:25:25.808Z,4.35
2023-08-15T06:28:28.372Z,4.85
2023-08-15T06:31:32.847Z,4.50
2023-08-15T06:34:37.708Z,4.63
2023-08-15T06:37:41.804Z,4.50
2023-08-15T06:40:44.335Z,4.25
2023-08-15T06:43:47.220Z,5.00
2023-08-15T06:46:50.312Z,4.28
2023-08-15T06:49:52.900Z,4.60
2023-08-15T06:52:56.752Z,4.90
2023-08-15T06:55:59.596Z,4.28
2023-08-15T06:59:02.147Z,4.15
2023-08-15T07:02:07.230Z,4.45
2023-08-15T07:05:11.772Z,4.45
2023-08-15T07:08:15.693Z,4.40
2023-08-15T07:11:18.296Z,4.50
2023-08-15T07:14:20.878Z,3.95
2023-08-15T07:17:23.561Z,4.43
2023-08-15T07:20:26.190Z,4.20
2023-08-15T07:23:31.324Z,4.15
2023-08-15T07:26:33.911Z,3.72
2023-08-15T07:29:36.457Z,4.50
2023-08-15T07:32:39.535Z,3.97
2023-08-15T07:35:42.543Z,3.80
2023-08-15T07:38:46.363Z,4.03
2023-08-15T07:41:48.879Z,3.95
2023-08-15T07:44:51.415Z,3.85
2023-08-15T07:47:54.639Z,3.47
2023-08-15T07:50:57.388Z,3.50
2023-08-15T07:54:01.232Z,3.95
2023-08-15T07:57:03.771Z,3.97
2023-08-15T08:00:08.122Z,3.63
2023-08-15T08:03:11.753Z,4.15
2023-08-15T08:06:37.332Z,3.80
2023-08-15T08:09:38.157Z,4.00
2023-08-15T08:12:40.991Z,4.00
2023-08-15T08:15:43.538Z,3.60
2023-08-15T08:18:46.105Z,3.53
2023-08-15T08:21:48.798Z,3.60
2023-08-15T08:24:54.337Z,3.75
2023-08-15T08:27:57.086Z,3.63
2023-08-15T08:31:00.148Z,3.75
2023-08-15T08:34:02.780Z,3.53
2023-08-15T08:37:05.927Z,3.70
2023-08-15T08:40:13.774Z,3.47
2023-08-15T08:43:17.660Z,3.15
2023-08-15T08:46:20.868Z,3.03
2023-08-15T08:49:28.487Z,3.25
2023-08-15T08:52:32.861Z,3.08
2023-08-15T08:55:37.169Z,2.90
2023-08-15T08:58:43.890Z,3.22
2023-08-15T09:01:46.984Z,2.63
2023-08-15T09:04:49.903Z,3.13
2023-08-15T09:07:53.358Z,2.75
2023-08-15T09:10:57.193Z,3.20
2023-08-15T09:14:04.398Z,2.75
2023-08-15T09:17:06.964Z,2.90
2023-08-15T09:20:12.653Z,2.10
2023-08-15T09:23:15.627Z,2.78
2023-08-15T09:26:19.889Z,2.35
2023-08-15T09:29:23.914Z,2.60
2023-08-15T09:32:26.506Z,2.63
2023-08-15T09:35:29.134Z,3.42
2023-08-15T09:38:31.675Z,3.10
2023-08-15T09:41:36.075Z,3.10
2023-08-15T09:44:40.447Z,3.28
2023-08-15T09:47:44.302Z,3.58
2023-08-15T09:50:49.458Z,3.80
2023-08-15T09:53:52.032Z,4.15
2023-08-15T09:56:56.000Z,3.58
2023-08-15T09:59:58.535Z,3.75
2023-08-15T10:03:02.836Z,4.22
2023-08-15T10:06:09.044Z,3.60
2023-08-15T10:09:16.415Z,3.30
2023-08-15T10:12:20.947Z,4.28
2023-08-15T10:15:24.726Z,3.33
2023-08-15T10:18:27.410Z,4.05
2023-08-15T10:21:47.942Z,3.90
2023-08-15T10:24:51.254Z,3.70
2023-08-15T10:27:56.936Z,4.13
2023-08-15T10:30:59.612Z,4.00
2023-08-15T10:34:04.007Z,3.88
2023-08-15T10:37:28.178Z,3.80
2023-08-15T10:40:40.872Z,4.22
2023-08-15T10:43:50.562Z,4.32
2023-08-15T10:46:53.216Z,3.85
2023-08-15T10:49:55.814Z,4.00
2023-08-15T10:52:59.580Z,4.53
2023-08-15T10:56:05.625Z,4.28
2023-08-15T10:59:12.859Z,4.70
2023-08-15T11:02:15.537Z,3.78
2023-08-15T11:05:20.199Z,4.38
2023-08-15T11:08:22.758Z,4.38
2023-08-15T11:11:26.159Z,3.92
2023-08-15T11:14:30.004Z,3.63
2023-08-15T11:17:32.630Z,4.43
2023-08-15T11:20:35.254Z,3.72
2023-08-15T11:23:38.354Z,3.88
2023-08-15T11:26:41.769Z,3.78
2023-08-15T11:29:47.030Z,3.85
2023-08-15T11:32:50.920Z,4.18
2023-08-15T11:35:53.501Z,3.97
2023-08-15T11:38:57.770Z,3.92
2023-08-15T11:42:00.683Z,3.85
2023-08-15T11:45:10.895Z,3.60
2023-08-15T11:48:14.333Z,3.65
2023-08-15T11:51:22.384Z,4.00
2023-08-15T11:54:28.191Z,3.90
2023-08-15T11:57:39.696Z,3.00
2023-08-15T12:00:43.732Z,3.47
2023-08-15T12:03:46.371Z,3.65
2023-08-15T12:06:48.920Z,3.30
2023-08-15T12:09:51.472Z,3.50
2023-08-15T12:12:53.986Z,3.08
2023-08-15T12:15:57.890Z,3.55
2023-08-15T12:19:00.459Z,3.97
2023-08-15T12:22:03.015Z,3.22
2023-08-15T12:25:08.891Z,3.30
2023-08-15T12:28:11.439Z,3.40
2023-08-15T12:31:15.537Z,3.50
2023-08-15T12:34:18.679Z,2.92
2023-08-15T12:37:21.177Z,3.53
2023-08-15T12:43:31.832Z,3.58
2023-08-15T12:46:35.677Z,3.60
2023-08-15T12:49:38.599Z,3.20
2023-08-15T12:52:41.434Z,3.35
2023-08-15T12:55:45.265Z,3.60
2023-08-15T12:58:47.803Z,3.17
2023-08-15T13:01:51.936Z,3.33
2023-08-15T13:04:54.503Z,3.53
2023-08-15T13:07:57.064Z,3.30
2023-08-15T13:10:59.649Z,3.30
2023-08-15T13:14:02.426Z,2.90
2023-08-15T13:17:06.802Z,3.00
2023-08-15T13:20:12.269Z,3.10
2023-08-15T13:23:14.761Z,3.20
2023-08-15T13:26:19.965Z,3.45
2023-08-15T13:29:22.499Z,2.97
2023-08-15T13:32:26.334Z,3.00
2023-08-15T13:35:28.848Z,3.00
2023-08-15T13:38:31.383Z,2.92
2023-08-15T13:41:33.892Z,2.90
2023-08-15T13:44:40.248Z,3.50
2023-08-15T13:47:44.546Z,3.45
2023-08-15T13:50:47.312Z,2.90
2023-08-15T13:53:50.461Z,3.35
2023-08-15T13:56:55.374Z,3.05
2023-08-15T13:59:58.379Z,3.05
2023-08-15T14:03:02.315Z,3.47
2023-08-15T14:06:05.872Z,2.47
2023-08-15T14:09:08.426Z,3.15
2023-08-15T14:12:11.091Z,3.15
2023-08-15T14:15:14.192Z,2.78
2023-08-15T14:18:18.077Z,2.80
2023-08-15T14:21:20.605Z,2.85
2023-08-15T14:24:23.412Z,2.78
2023-08-15T14:27:26.094Z,2.55
2023-08-15T14:30:29.044Z,2.50
2023-08-15T14:33:32.972Z,2.33
2023-08-15T14:36:36.492Z,2.53
2023-08-15T14:39:39.015Z,2.40
2023-08-15T14:42:41.867Z,3.00
2023-08-15T14:45:44.449Z,2.35
2023-08-15T14:48:48.327Z,2.30
2023-08-15T14:51:50.935Z,2.47
2023-08-15T14:54:53.669Z,2.20
2023-08-15T14:57:56.265Z,2.40
2023-08-15T15:00:58.820Z,2.78
2023-08-15T15:04:02.832Z,2.35
2023-08-15T15:07:05.745Z,2.90
2023-08-15T15:10:09.141Z,3.05
2023-08-15T15:13:11.762Z,2.55
2023-08-15T15:16:14.660Z,2.00
2023-08-15T15:19:18.523Z,1.90
2023-08-15T15:22:21.332Z,1.90
2023-08-15T15:25:23.859Z,2.10
2023-08-15T15:28:26.366Z,2.50
2023-08-15T15:31:28.901Z,2.58
2023-08-15T15:34:32.911Z,2.30
2023-08-15T15:37:35.479Z,2.30
2023-08-15T15:40:38.001Z,2.35
2023-08-15T15:43:40.548Z,2.63
2023-08-15T15:46:53.927Z,2.22
2023-08-15T15:49:59.027Z,2.80
2023-08-15T15:53:01.950Z,2.38
2023-08-15T15:56:04.828Z,2.33
2023-08-15T15:59:07.391Z,2.20
2023-08-15T16:02:09.940Z,2.22
2023-08-15T16:05:14.060Z,2.30
2023-08-15T16:08:16.712Z,2.50
2023-08-15T16:11:19.216Z,2.08
2023-08-15T16:14:21.792Z,2.45
2023-08-15T16:17:24.574Z,2.42
2023-08-15T16:20:29.404Z,2.50
2023-08-15T16:23:31.996Z,2.40
2023-08-15T16:26:36.763Z,2.38
2023-08-15T16:29:39.600Z,2.50
2023-08-15T16:32:42.263Z,2.28
2023-08-15T16:35:46.230Z,2.33
2023-08-15T16:38:48.771Z,3.03
2023-08-15T16:41:51.400Z,2.65
2023-08-15T16:44:53.952Z,2.63
2023-08-15T16:47:56.531Z,3.00
2023-08-15T16:51:00.427Z,3.00
2023-08-15T16:54:03.021Z,2.80
2023-08-15T16:57:05.719Z,3.35
2023-08-15T17:00:09.396Z,2.85
2023-08-15T17:03:12.153Z,2.15
2023-08-15T17:06:16.189Z,3.00
2023-08-15T17:09:18.703Z,2.70
2023-08-15T17:12:21.487Z,2.70
2023-08-15T17:15:24.275Z,3.35
2023-08-15T17:18:27.328Z,2.90
2023-08-15T17:21:31.184Z,2.70
